Terminal Aerodrome Forecast
Issued by NWS

Home | Current Version | Previous Version | Text Only | Print | Product List | Glossary On
Versions: 1 2 3 4 5 6 7 8 9 10 11 12 13 14 15 16 17 18 19 20
249
FTUS43 KLSX 261019 AAB
TAFUIN
TAF AMD
KUIN 261019Z 2610/2706 20011KT 6SM -SHRA VCTS BKN040CB
      TEMPO 2610/2613 3SM SHRA OVC015
     FM261500 21013KT P6SM OVC025
     FM261900 25012KT 5SM -SHRA VCTS OVC010CB
     FM270000 32012KT P6SM OVC020=

USA.gov is the U.S. government's official web portal to all federal, state and local government web resources and services.